Wetterdaten: Woche 20.03.06 - 26.03.06 (KW12)
Datum Zeit Temperatur Luftfeuchte Luftdruck Niederschlag Windrichtung Wind
20.03.2006 00:00 -2,8 C 79 % 1010 hPa 0,0 l/m N 0,0 km/h (0 Bft)
20.03.2006 01:00 -3,4 C 82 % 1010 hPa 0,0 l/m N 0,0 km/h (0 Bft)
20.03.2006 02:00 -3,8 C 84 % 1010 hPa 0,0 l/m N 0,0 km/h (0 Bft)
20.03.2006 03:00 -4,3 C 87 % 1010 hPa 0,0 l/m N 0,0 km/h (0 Bft)
20.03.2006 04:00 -4,7 C 87 % 1010 hPa 0,0 l/m N 0,0 km/h (0 Bft)
20.03.2006 05:00 -5,1 C 88 % 1010 hPa 0,0 l/m N 0,0 km/h (0 Bft)
20.03.2006 06:00 -5,4 C 89 % 1010 hPa 0,0 l/m N 0,0 km/h (0 Bft)
20.03.2006 07:00 -4,7 C 91 % 1010 hPa 0,0 l/m N 0,0 km/h (0 Bft)
20.03.2006 08:00 -2,7 C 95 % 1010 hPa 0,0 l/m S-SW 0,3 km/h (0 Bft)
20.03.2006 09:00 1,6 C 88 % 1010 hPa 0,0 l/m S-SW 5,6 km/h (1 Bft)
20.03.2006 10:00 5,5 C 60 % 1010 hPa 0,0 l/m S-SW 9,8 km/h (2 Bft)
20.03.2006 11:00 7,7 C 51 % 1009 hPa 0,0 l/m S 11,1 km/h (2 Bft)
20.03.2006 12:00 9,5 C 48 % 1009 hPa 0,0 l/m S-SW 12,4 km/h (3 Bft)
20.03.2006 13:00 11,5 C 42 % 1008 hPa 0,0 l/m S-SW 12,1 km/h (2 Bft)
20.03.2006 14:00 12,4 C 37 % 1008 hPa 0,0 l/m S-SW 12,2 km/h (2 Bft)
20.03.2006 15:00 12,0 C 36 % 1007 hPa 0,0 l/m W-SW 10,5 km/h (2 Bft)
20.03.2006 16:00 11,7 C 37 % 1007 hPa 0,0 l/m W 6,9 km/h (2 Bft)
20.03.2006 17:00 11,3 C 38 % 1007 hPa 0,0 l/m W-SW 2,4 km/h (1 Bft)
20.03.2006 18:00 7,6 C 44 % 1007 hPa 0,0 l/m W-SW 1,0 km/h (0 Bft)
20.03.2006 19:00 4,7 C 52 % 1008 hPa 0,0 l/m W-SW 0,4 km/h (0 Bft)
20.03.2006 20:00 3,0 C 59 % 1008 hPa 0,0 l/m N 0,0 km/h (0 Bft)
20.03.2006 21:00 1,9 C 65 % 1008 hPa 0,0 l/m N 0,0 km/h (0 Bft)
20.03.2006 22:00 1,1 C 70 % 1008 hPa 0,0 l/m N 0,0 km/h (0 Bft)
20.03.2006 23:00 1,2 C 74 % 1008 hPa 0,0 l/m N 0,0 km/h (0 Bft)
21.03.2006 00:00 1,6 C 76 % 1008 hPa 0,0 l/m N 0,0 km/h (0 Bft)
21.03.2006 01:00 1,7 C 77 % 1008 hPa 0,0 l/m N 0,0 km/h (0 Bft)
21.03.2006 02:00 1,5 C 78 % 1008 hPa 0,0 l/m N 0,0 km/h (0 Bft)
21.03.2006 03:00 1,7 C 79 % 1007 hPa 0,0 l/m N 0,0 km/h (0 Bft)
21.03.2006 04:00 1,2 C 80 % 1007 hPa 0,0 l/m N 0,0 km/h (0 Bft)
21.03.2006 05:00 0,7 C 82 % 1006 hPa 0,0 l/m N 0,0 km/h (0 Bft)
21.03.2006 06:00 0,9 C 85 % 1006 hPa 0,0 l/m N 0,0 km/h (0 Bft)
21.03.2006 07:00 1,5 C 87 % 1006 hPa 0,0 l/m O 0,6 km/h (0 Bft)
21.03.2006 08:00 2,9 C 87 % 1007 hPa 0,0 l/m S-SO 0,7 km/h (0 Bft)
21.03.2006 09:00 4,6 C 82 % 1006 hPa 0,0 l/m S 8,1 km/h (2 Bft)
21.03.2006 10:00 6,7 C 71 % 1006 hPa 0,0 l/m S 5,8 km/h (2 Bft)
21.03.2006 11:00 9,6 C 60 % 1006 hPa 0,0 l/m O-SO 9,0 km/h (2 Bft)
21.03.2006 12:00 12,9 C 51 % 1005 hPa 0,0 l/m S-SW 14,6 km/h (3 Bft)
21.03.2006 13:00 14,0 C 46 % 1005 hPa 0,0 l/m S-SW 15,5 km/h (3 Bft)
21.03.2006 14:00 13,7 C 44 % 1004 hPa 0,0 l/m W-SW 12,7 km/h (3 Bft)
21.03.2006 15:00 12,3 C 49 % 1004 hPa 0,0 l/m W-SW 12,3 km/h (3 Bft)
21.03.2006 16:00 11,4 C 54 % 1004 hPa 0,0 l/m W 13,7 km/h (3 Bft)
21.03.2006 17:00 10,7 C 58 % 1004 hPa 0,0 l/m SW 7,9 km/h (2 Bft)
21.03.2006 18:00 9,6 C 65 % 1004 hPa 0,0 l/m W 4,5 km/h (1 Bft)
21.03.2006 19:00 7,8 C 78 % 1005 hPa 0,0 l/m W-SW 2,7 km/h (1 Bft)
21.03.2006 20:00 7,0 C 85 % 1005 hPa 0,0 l/m S-SW 0,6 km/h (0 Bft)
21.03.2006 21:00 6,5 C 90 % 1005 hPa 2,0 l/m S-SW 7,0 km/h (2 Bft)
21.03.2006 22:00 6,3 C 97 % 1005 hPa 1,0 l/m S-SW 9,4 km/h (2 Bft)
21.03.2006 23:00 6,0 C 99 % 1005 hPa 0,0 l/m S-SW 10,0 km/h (2 Bft)
22.03.2006 00:00 5,9 C 98 % 1005 hPa 0,0 l/m S-SW 7,6 km/h (2 Bft)
22.03.2006 01:00 5,7 C 98 % 1005 hPa 0,0 l/m SW 9,2 km/h (2 Bft)
22.03.2006 02:00 5,7 C 99 % 1005 hPa 0,0 l/m S-SW 10,5 km/h (2 Bft)
22.03.2006 03:00 5,6 C 99 % 1005 hPa 0,0 l/m W-SW 3,0 km/h (1 Bft)
22.03.2006 04:00 5,4 C 98 % 1005 hPa 0,0 l/m S 1,5 km/h (1 Bft)
22.03.2006 05:00 5,1 C 99 % 1005 hPa 0,0 l/m S-SW 10,1 km/h (2 Bft)
22.03.2006 06:00 5,3 C 100 % 1005 hPa 0,0 l/m O 5,2 km/h (1 Bft)
22.03.2006 07:00 5,1 C 99 % 1005 hPa 0,0 l/m O-SO 0,8 km/h (0 Bft)
22.03.2006 08:00 5,4 C 100 % 1006 hPa 0,0 l/m N 0,0 km/h (0 Bft)
22.03.2006 09:00 6,0 C 100 % 1006 hPa 0,0 l/m S-SW 5,5 km/h (1 Bft)
22.03.2006 10:00 7,1 C 98 % 1006 hPa 0,0 l/m S 6,4 km/h (2 Bft)
22.03.2006 11:00 7,3 C 92 % 1006 hPa 0,0 l/m N 4,6 km/h (1 Bft)
22.03.2006 12:00 7,5 C 88 % 1006 hPa 0,0 l/m N-NO 10,7 km/h (2 Bft)
22.03.2006 13:00 7,4 C 84 % 1006 hPa 0,0 l/m N-NO 13,3 km/h (3 Bft)
22.03.2006 14:00 7,3 C 82 % 1006 hPa 0,0 l/m NO 11,5 km/h (2 Bft)
22.03.2006 15:00 7,1 C 81 % 1006 hPa 0,0 l/m N-NO 12,8 km/h (3 Bft)
22.03.2006 16:00 6,6 C 79 % 1006 hPa 0,0 l/m N-NO 16,5 km/h (3 Bft)
22.03.2006 17:00 6,0 C 79 % 1006 hPa 0,0 l/m N-NO 13,6 km/h (3 Bft)
22.03.2006 18:00 5,0 C 82 % 1006 hPa 0,0 l/m NO 14,1 km/h (3 Bft)
22.03.2006 19:00 4,1 C 86 % 1007 hPa 0,0 l/m NO 15,0 km/h (3 Bft)
22.03.2006 20:00 3,4 C 90 % 1007 hPa 0,0 l/m NO 13,0 km/h (3 Bft)
22.03.2006 21:00 3,1 C 94 % 1007 hPa 0,0 l/m NO 12,0 km/h (2 Bft)
22.03.2006 22:00 2,8 C 97 % 1006 hPa 0,0 l/m NO 12,8 km/h (3 Bft)
22.03.2006 23:00 2,8 C 96 % 1006 hPa 0,0 l/m N 10,8 km/h (2 Bft)
23.03.2006 00:00 2,5 C 95 % 1006 hPa 0,0 l/m N-NO 12,6 km/h (3 Bft)
23.03.2006 01:00 2,2 C 96 % 1006 hPa 0,0 l/m NO 13,0 km/h (3 Bft)
23.03.2006 02:00 1,9 C 97 % 1006 hPa 0,0 l/m NO 13,5 km/h (3 Bft)
23.03.2006 03:00 1,5 C 98 % 1006 hPa 0,0 l/m NO 14,1 km/h (3 Bft)
23.03.2006 04:00 1,1 C 98 % 1007 hPa 0,0 l/m N-NO 13,1 km/h (3 Bft)
23.03.2006 05:00 0,6 C 97 % 1007 hPa 0,0 l/m NO 13,3 km/h (3 Bft)
23.03.2006 06:00 0,2 C 98 % 1007 hPa 0,0 l/m N-NO 4,6 km/h (1 Bft)
23.03.2006 07:00 0,1 C 95 % 1008 hPa 0,0 l/m N 0,0 km/h (0 Bft)
23.03.2006 08:00 0,1 C 90 % 1009 hPa 0,0 l/m N 0,0 km/h (0 Bft)
23.03.2006 09:00 0,1 C 92 % 1009 hPa 0,0 l/m N 0,0 km/h (0 Bft)
23.03.2006 10:00 0,4 C 93 % 1010 hPa 0,0 l/m N 0,0 km/h (0 Bft)
23.03.2006 11:00 0,8 C 91 % 1010 hPa 0,0 l/m N 2,4 km/h (1 Bft)
23.03.2006 12:00 1,1 C 89 % 1010 hPa 0,0 l/m N-NO 9,6 km/h (2 Bft)
23.03.2006 13:00 1,6 C 89 % 1010 hPa 0,0 l/m N 9,6 km/h (2 Bft)
23.03.2006 14:00 1,6 C 88 % 1010 hPa 0,0 l/m N-NO 12,2 km/h (2 Bft)
23.03.2006 15:00 1,4 C 90 % 1011 hPa 0,0 l/m NO 11,1 km/h (2 Bft)
23.03.2006 16:00 1,3 C 95 % 1010 hPa 0,0 l/m N-NO 12,6 km/h (3 Bft)
23.03.2006 17:00 1,2 C 98 % 1010 hPa 1,0 l/m N-NO 12,0 km/h (2 Bft)
23.03.2006 18:00 1,1 C 100 % 1011 hPa 1,0 l/m N-NO 8,3 km/h (2 Bft)
23.03.2006 19:00 1,1 C 100 % 1011 hPa 0,0 l/m N 3,6 km/h (1 Bft)
23.03.2006 20:00 1,2 C 100 % 1011 hPa 1,0 l/m N-NO 4,7 km/h (1 Bft)
23.03.2006 21:00 1,3 C 100 % 1010 hPa 0,0 l/m N-NO 3,4 km/h (1 Bft)
23.03.2006 22:00 1,4 C 100 % 1010 hPa 1,0 l/m O-NO 9,0 km/h (2 Bft)
23.03.2006 23:00 1,2 C 100 % 1009 hPa 0,0 l/m O-NO 11,4 km/h (2 Bft)
24.03.2006 00:00 0,8 C 100 % 1008 hPa 0,0 l/m N 7,9 km/h (2 Bft)
24.03.2006 01:00 0,7 C 100 % 1007 hPa 0,0 l/m NO 9,6 km/h (2 Bft)
24.03.2006 02:00 0,5 C 100 % 1007 hPa 0,0 l/m O-NO 5,2 km/h (1 Bft)
24.03.2006 03:00 0,4 C 100 % 1006 hPa 0,0 l/m NO 6,7 km/h (2 Bft)
24.03.2006 04:00 0,2 C 100 % 1006 hPa 0,0 l/m N-NO 4,7 km/h (1 Bft)
24.03.2006 05:00 0,1 C 100 % 1006 hPa 0,0 l/m O 6,7 km/h (2 Bft)
24.03.2006 06:00 -0,1 C 100 % 1005 hPa 0,0 l/m N 0,0 km/h (0 Bft)
24.03.2006 07:00 -0,0 C 100 % 1005 hPa 0,0 l/m N 0,0 km/h (0 Bft)
24.03.2006 08:00 0,2 C 100 % 1005 hPa 1,0 l/m N 0,0 km/h (0 Bft)
24.03.2006 09:00 0,4 C 100 % 1006 hPa 0,0 l/m N 0,0 km/h (0 Bft)
24.03.2006 10:00 1,1 C 100 % 1006 hPa 0,0 l/m W-SW 3,7 km/h (1 Bft)
24.03.2006 11:00 1,9 C 100 % 1006 hPa 0,0 l/m S-SW 8,9 km/h (2 Bft)
24.03.2006 12:00 2,9 C 98 % 1006 hPa 0,0 l/m S-SW 7,2 km/h (2 Bft)
24.03.2006 13:00 3,7 C 91 % 1006 hPa 0,0 l/m SW 3,4 km/h (1 Bft)
24.03.2006 14:00 4,3 C 87 % 1006 hPa 0,0 l/m S-SW 6,4 km/h (2 Bft)
24.03.2006 15:00 4,9 C 89 % 1006 hPa 1,0 l/m S-SW 7,2 km/h (2 Bft)
24.03.2006 16:00 5,5 C 90 % 1006 hPa 0,0 l/m S 12,4 km/h (3 Bft)
24.03.2006 17:00 5,3 C 89 % 1006 hPa 0,0 l/m S 8,1 km/h (2 Bft)
24.03.2006 18:00 4,8 C 90 % 1006 hPa 0,0 l/m S 6,1 km/h (2 Bft)
24.03.2006 19:00 3,9 C 92 % 1006 hPa 0,0 l/m SO 3,0 km/h (1 Bft)
24.03.2006 20:00 2,8 C 94 % 1007 hPa 0,0 l/m N 0,0 km/h (0 Bft)
24.03.2006 21:00 2,8 C 96 % 1007 hPa 0,0 l/m N 0,0 km/h (0 Bft)
24.03.2006 22:00 2,6 C 98 % 1007 hPa 0,0 l/m N 0,0 km/h (0 Bft)
24.03.2006 23:00 2,6 C 99 % 1007 hPa 0,0 l/m S-SW 1,1 km/h (1 Bft)
25.03.2006 00:00 3,3 C 100 % 1007 hPa 0,0 l/m S-SW 10,9 km/h (2 Bft)
25.03.2006 01:00 3,9 C 99 % 1008 hPa 0,0 l/m S-SW 14,9 km/h (3 Bft)
25.03.2006 02:00 3,8 C 97 % 1008 hPa 0,0 l/m S-SW 14,3 km/h (3 Bft)
25.03.2006 03:00 3,7 C 98 % 1009 hPa 0,0 l/m S-SW 12,8 km/h (3 Bft)
25.03.2006 04:00 4,0 C 100 % 1009 hPa 0,0 l/m S-SW 10,7 km/h (2 Bft)
25.03.2006 05:00 4,6 C 100 % 1010 hPa 0,0 l/m S-SW 12,4 km/h (3 Bft)
25.03.2006 06:00 4,8 C 100 % 1010 hPa 1,0 l/m S-SW 13,0 km/h (3 Bft)
25.03.2006 07:00 6,9 C 99 % 1011 hPa 0,0 l/m SW 16,8 km/h (3 Bft)
25.03.2006 08:00 9,2 C 81 % 1012 hPa 0,0 l/m W-SW 22,8 km/h (4 Bft)
25.03.2006 09:00 10,9 C 70 % 1013 hPa 0,0 l/m W-SW 19,9 km/h (4 Bft)
25.03.2006 10:00 11,1 C 68 % 1013 hPa 0,0 l/m SW 22,4 km/h (4 Bft)
25.03.2006 11:00 10,7 C 71 % 1013 hPa 0,0 l/m SW 19,4 km/h (3 Bft)
25.03.2006 12:00 11,5 C 66 % 1014 hPa 0,0 l/m W-SW 19,7 km/h (3 Bft)
25.03.2006 13:00 12,3 C 64 % 1014 hPa 0,0 l/m W-SW 21,2 km/h (4 Bft)
25.03.2006 14:00 12,6 C 62 % 1014 hPa 0,0 l/m W-SW 20,4 km/h (4 Bft)
25.03.2006 15:00 12,6 C 55 % 1014 hPa 0,0 l/m W-SW 22,3 km/h (4 Bft)
25.03.2006 16:00 12,6 C 52 % 1014 hPa 0,0 l/m W-SW 20,4 km/h (4 Bft)
25.03.2006 17:00 12,1 C 55 % 1014 hPa 0,0 l/m W-SW 11,2 km/h (2 Bft)
25.03.2006 18:00 11,2 C 60 % 1014 hPa 0,0 l/m S-SW 9,3 km/h (2 Bft)
25.03.2006 19:00 10,5 C 66 % 1015 hPa 0,0 l/m S-SW 10,3 km/h (2 Bft)
25.03.2006 20:00 10,4 C 65 % 1015 hPa 0,0 l/m S-SW 11,0 km/h (2 Bft)
25.03.2006 21:00 10,0 C 68 % 1016 hPa 0,0 l/m W-SW 10,2 km/h (2 Bft)
25.03.2006 22:00 10,1 C 64 % 1016 hPa 0,0 l/m S-SW 12,8 km/h (3 Bft)
25.03.2006 23:00 9,7 C 76 % 1016 hPa 1,0 l/m SW 18,1 km/h (3 Bft)
26.03.2006 00:00 8,6 C 92 % 1016 hPa 0,0 l/m S-SW 20,2 km/h (4 Bft)
26.03.2006 01:00 8,6 C 95 % 1016 hPa 1,0 l/m SW 19,9 km/h (4 Bft)
26.03.2006 02:00 8,6 C 95 % 1016 hPa 0,0 l/m S-SW 28,7 km/h (4 Bft)
26.03.2006 03:00 8,5 C 96 % 1016 hPa 0,0 l/m SW 18,5 km/h (3 Bft)
26.03.2006 04:00 8,4 C 98 % 1016 hPa 1,0 l/m S-SW 18,2 km/h (3 Bft)
26.03.2006 05:00 8,3 C 99 % 1016 hPa 0,0 l/m S-SW 19,0 km/h (3 Bft)
26.03.2006 06:00 8,1 C 99 % 1016 hPa 0,0 l/m S-SW 18,8 km/h (3 Bft)
26.03.2006 07:00 8,0 C 100 % 1016 hPa 0,0 l/m S-SW 17,9 km/h (3 Bft)
26.03.2006 08:00 8,2 C 100 % 1017 hPa 0,0 l/m S-SW 17,1 km/h (3 Bft)
26.03.2006 09:00 8,4 C 100 % 1017 hPa 0,0 l/m S-SW 14,1 km/h (3 Bft)
26.03.2006 10:00 9,6 C 100 % 1017 hPa 0,0 l/m S-SW 12,5 km/h (3 Bft)
26.03.2006 11:00 11,6 C 83 % 1017 hPa 0,0 l/m SW 20,5 km/h (4 Bft)
26.03.2006 12:00 12,3 C 73 % 1017 hPa 0,0 l/m SW 20,5 km/h (4 Bft)
26.03.2006 13:00 12,5 C 74 % 1017 hPa 0,0 l/m SW 16,8 km/h (3 Bft)
26.03.2006 14:00 14,5 C 65 % 1017 hPa 0,0 l/m SW 18,5 km/h (3 Bft)
26.03.2006 15:00 16,9 C 53 % 1016 hPa 0,0 l/m S-SW 18,9 km/h (3 Bft)
26.03.2006 16:00 17,3 C 49 % 1016 hPa 0,0 l/m W-SW 17,8 km/h (3 Bft)
26.03.2006 17:00 17,5 C 48 % 1015 hPa 0,0 l/m SW 16,7 km/h (3 Bft)
26.03.2006 18:00 17,5 C 50 % 1015 hPa 0,0 l/m S-SW 7,1 km/h (2 Bft)
26.03.2006 19:00 15,4 C 57 % 1015 hPa 0,0 l/m N 0,0 km/h (0 Bft)
26.03.2006 20:00 12,6 C 69 % 1015 hPa 0,0 l/m N 0,0 km/h (0 Bft)
26.03.2006 21:00 11,0 C 75 % 1015 hPa 0,0 l/m N 0,0 km/h (0 Bft)
26.03.2006 22:00 10,0 C 79 % 1014 hPa 0,0 l/m N 0,0 km/h (0 Bft)
26.03.2006 23:00 9,1 C 83 % 1014 hPa 0,0 l/m N 0,0 km/h (0 Bft)
Min-Datum _ 20.03.06 20.03.06 21.03.06 - - 20.03.06
_ Min-Zeit 06:23 15:44 16:48 - - 00:00
Minimum _ -5,5 C 34 % 1003 hPa - - 0,0 km/h (0 Bft)
Max-Datum _ 26.03.06 21.03.06 26.03.06 21.03.06 - 25.03.06
_ Max-Zeit 17:55 23:29 08:34 21:13 - 12:52
Maximum _ 17,8 C 100 % 1017 hPa 2,0 l/m - 44,4 km/h
W-SW (6 Bft)
Durchschnitt _ 5,4 C 83 % 1009 hPa #13,0 l/m S-SW 8,7 km/h (2 Bft)

Durchschnitt Minimum Temp.5,1 C
Durchschnitt Maximum Temp.5,8 C